Denver, Colorado
Traffic Map
Current Weather Conditions
Denver, Colorado
Broken Clouds Rain Showers
Broken Clouds
69°
Feels Like: 69°
Wind Chill: 69° Ceiling: 11000
Heat Index: 69° Visibility: 10mi
Dew Point: 37° Wind: 10mph
Humidity: 31% Direction: 30° (NNE)
Pressure: 30.08in Gusts: 0mph
Raw Report DataKBKF 222058Z 03009KT 10SM VCSH SCT070 BKN110 BKN220 21/03 A3008 RMK AO2A SLP129 T02060028 56012
Traffic Incident Summary
Active as of:
Severity:
Category:
InformationThere was an issue retrieving the traffic information for this location. Please try a different location or try again shortly.
Advertisements
Track Severe Weather on mobile